Roxana, IL (62084)

7:57 AM CDT on May 26, 2015 (GMT -0500)
Wood River (West End) | | Change Station
CLOSE
Current Station
Personal Weather Station
Location: Wood River, IL
Elevation: 446 ft
Nearby Weather Stations

Elev 446 ft 38.87 °N, 90.10 °W | Updated 14 minutes ago

Overcast
Overcast
71.8 °F
Feels Like 71 °F
N
4.7
Wind Variable Wind from ESE

Today
High -- | Low -- °F
--% Chance of Precip.
Yesterday
High -- | Low -- °F
Precip. -- in
5:40 AM 8:15 PM
First Quarter, 58% visible
Pressure 29.85 in
Visibility 8.0 miles
Clouds Overcast 1600 ft
Heat Index 71 °F
Dew Point 67 °F
Humidity 85%
Rainfall 0.00 in
Snow Depth Not available.
UV 1 out of 12
Pollen 4.10 out of 12
Air Quality Not available.
Flu Activity Sporadic
METAR KALN 261247Z 16012G18KT 8SM -SHRA OVC016 22/22 A2985

More Conditions Fewer Conditions

Pressure 29.85 in
Visibility 8.0 miles
Clouds Overcast 1600 ft
Heat Index 71 °F
Dew Point 67 °F
Humidity 85%
Rainfall 0.00 in
Snow Depth Not available.
UV 1 out of 12
Pollen 4.10 out of 12
Air Quality Not available.
Flu Activity Sporadic
METAR KALN 261247Z 16012G18KT 8SM -SHRA OVC016 22/22 A2985

More Conditions Fewer Conditions

10-Day Weather Forecast

Almanac

Astronomy

May. 26, 2015 Rise Set
Actual Time
Civil Twilight
Nautical Twilight
Astronomical Twilight
Moon
Length of Visible Light
Length of Day
Tomorrow will be .
, % of the Moon is Illuminated

Today's Extremes

State Highs State Lows

Community

WunderPhotos

Upload Photos

1,824,336 photos uploaded!

WunderBlogs® & News

Nearby

Air Quality

  Air Quality AQ Index Pollutant
Not available.

Snow Depth

Station Depth Elevation

Earthquake Activity

City Distance Mag. Time & Date
Minimum magnitude displayed is 2.5.

Coastal Water Temperatures

Place Temperature

Stations

Nearby Weather Stations

Station Location Temp. Windchill Dew Point Humidity Wind Precip. Elev Updated Type